Terminal Aerodrome Forecast
Issued by NWS

Current Version | Previous Version | Graphics & Text | Print | Product List | Glossary On
Versions: 1 2 3 4 5 6 7 8 9 10 11 12 13 14 15 16 17 18 19 20 21 22 23 24 25 26 27 28 29 30 31 32 33 34
109
FTUS41 KRNK 052349
TAFLWB
TAF
KLWB 052349Z 0600/0624 00000KT P6SM OVC100
     FM060500 VRB03KT P6SM OVC060
     FM060700 09003KT P6SM -RA OVC045
     FM060900 09004KT 4SM -RA BR OVC011
     FM061200 08006KT 1SM -RA BR OVC005
     FM062200 VRB04KT 3SM -DZ BR OVC007=

USA.gov is the U.S. government's official web portal to all federal, state and local government web resources and services.